createdAt,value
2022-10-05T00:00:02.824Z,18.70
2022-10-05T00:05:20.563Z,18.70
2022-10-05T00:10:24.804Z,18.60
2022-10-05T00:15:30.306Z,18.60
2022-10-05T00:20:33.702Z,18.60
2022-10-05T00:25:37.164Z,18.60
2022-10-05T00:30:42.120Z,18.50
2022-10-05T00:35:45.450Z,18.50
2022-10-05T00:41:02.654Z,18.40
2022-10-05T00:46:11.797Z,18.40
2022-10-05T00:51:24.871Z,18.40
2022-10-05T00:56:44.640Z,18.40
2022-10-05T01:01:58.841Z,18.30
2022-10-05T01:07:12.309Z,18.30
2022-10-05T01:12:24.578Z,18.30
2022-10-05T01:17:37.372Z,18.30
2022-10-05T01:23:00.557Z,18.30
2022-10-05T01:28:09.912Z,18.20
2022-10-05T01:33:22.922Z,18.20
2022-10-05T01:38:39.818Z,18.10
2022-10-05T01:43:49.422Z,18.10
2022-10-05T01:49:13.647Z,18.10
2022-10-05T01:54:29.298Z,18.10
2022-10-05T01:59:45.971Z,18.00
2022-10-05T02:05:02.125Z,18.00
2022-10-05T02:10:15.039Z,18.00
2022-10-05T02:15:26.893Z,17.90
2022-10-05T02:20:33.949Z,17.90
2022-10-05T02:25:42.118Z,17.90
2022-10-05T02:30:52.867Z,17.90
2022-10-05T02:36:01.381Z,17.90
2022-10-05T02:41:13.832Z,17.80
2022-10-05T02:46:31.512Z,17.80
2022-10-05T02:51:38.945Z,17.80
2022-10-05T02:56:49.686Z,17.80
2022-10-05T03:02:01.368Z,17.80
2022-10-05T03:07:12.332Z,17.80
2022-10-05T03:12:30.158Z,17.70
2022-10-05T03:17:41.018Z,17.70
2022-10-05T03:22:50.946Z,17.60
2022-10-05T03:28:02.337Z,17.60
2022-10-05T03:33:15.345Z,17.60
2022-10-05T03:38:25.448Z,17.60
2022-10-05T03:44:00.988Z,17.50
2022-10-05T03:49:15.136Z,17.50
2022-10-05T03:54:25.779Z,17.50
2022-10-05T03:59:34.970Z,17.50
2022-10-05T04:04:46.310Z,17.40
2022-10-05T04:09:54.220Z,17.40
2022-10-05T04:15:03.774Z,17.40
2022-10-05T04:20:18.770Z,17.40
2022-10-05T04:25:26.268Z,17.30
2022-10-05T04:30:31.841Z,17.30
2022-10-05T04:35:56.585Z,17.30
2022-10-05T04:41:14.734Z,17.30
2022-10-05T04:46:33.725Z,17.30
2022-10-05T04:51:50.902Z,17.30
2022-10-05T04:57:01.771Z,17.20
2022-10-05T05:02:16.924Z,17.20
2022-10-05T05:07:37.175Z,17.20
2022-10-05T05:12:52.011Z,17.20
2022-10-05T05:18:24.743Z,17.20
2022-10-05T05:23:38.786Z,17.20
2022-10-05T05:28:50.863Z,17.10
2022-10-05T05:34:04.191Z,17.10
2022-10-05T05:39:25.295Z,17.20
2022-10-05T05:44:38.718Z,17.50
2022-10-05T05:50:06.562Z,18.00
2022-10-05T05:55:21.396Z,18.20
2022-10-05T06:00:28.852Z,18.40
2022-10-05T06:05:41.705Z,18.40
2022-10-05T06:10:54.021Z,18.40
2022-10-05T06:16:05.325Z,18.40
2022-10-05T06:21:17.103Z,18.40
2022-10-05T06:26:43.671Z,18.30
2022-10-05T06:32:01.238Z,18.30
2022-10-05T06:37:12.087Z,18.20
2022-10-05T06:42:31.623Z,18.20
2022-10-05T06:48:21.668Z,18.20
2022-10-05T06:54:04.213Z,18.20
2022-10-05T06:59:15.774Z,18.20
2022-10-05T07:04:44.326Z,18.20
2022-10-05T07:10:01.749Z,18.10
2022-10-05T07:15:34.954Z,18.10
2022-10-05T07:20:49.184Z,18.10
2022-10-05T07:26:04.643Z,18.20
2022-10-05T07:31:14.943Z,18.20
2022-10-05T07:36:43.132Z,18.20
2022-10-05T07:41:51.488Z,18.30
2022-10-05T07:47:05.440Z,18.30
2022-10-05T07:52:14.324Z,18.40
2022-10-05T07:57:25.973Z,18.50
2022-10-05T08:02:36.137Z,18.60
2022-10-05T08:07:40.631Z,18.60
2022-10-05T08:12:55.846Z,18.80
2022-10-05T08:18:03.212Z,18.90
2022-10-05T08:23:15.887Z,19.00
2022-10-05T08:28:24.792Z,19.10
2022-10-05T08:33:36.268Z,19.30
2022-10-05T08:38:41.160Z,19.40
2022-10-05T08:44:15.076Z,19.60
2022-10-05T08:49:47.245Z,19.70
2022-10-05T08:55:27.706Z,19.90
2022-10-05T09:00:41.005Z,20.10
2022-10-05T09:06:09.102Z,20.40
2022-10-05T09:11:19.175Z,20.60
2022-10-05T09:16:49.177Z,20.80
2022-10-05T09:21:59.350Z,21.10
2022-10-05T09:27:10.116Z,21.30
2022-10-05T09:32:45.655Z,21.50
2022-10-05T09:38:16.498Z,21.80
2022-10-05T09:43:55.617Z,22.00
2022-10-05T09:49:21.497Z,22.20
2022-10-05T09:55:06.840Z,22.50
2022-10-05T10:00:21.850Z,22.70
2022-10-05T10:05:39.092Z,22.90
2022-10-05T10:10:58.123Z,23.20
2022-10-05T10:16:23.714Z,23.50
2022-10-05T10:21:53.853Z,23.80
2022-10-05T10:27:12.316Z,24.00
2022-10-05T10:32:46.137Z,24.20
2022-10-05T10:38:31.322Z,24.30
2022-10-05T10:44:16.413Z,24.40
2022-10-05T10:49:39.471Z,24.50
2022-10-05T10:55:08.239Z,24.60
2022-10-05T11:00:33.624Z,24.80
2022-10-05T11:06:05.293Z,25.00
2022-10-05T11:11:38.271Z,25.20
2022-10-05T11:17:10.873Z,25.30
2022-10-05T11:22:43.879Z,25.60
2022-10-05T11:28:01.997Z,25.70
2022-10-05T11:33:43.856Z,26.00
2022-10-05T11:39:30.381Z,26.10
2022-10-05T11:45:06.317Z,26.30
2022-10-05T11:50:22.035Z,26.40
2022-10-05T11:55:28.933Z,26.60
2022-10-05T12:00:41.503Z,26.70
2022-10-05T12:06:05.347Z,26.80
2022-10-05T12:11:16.319Z,26.90
2022-10-05T12:16:27.721Z,27.10
2022-10-05T12:21:41.158Z,27.20
2022-10-05T12:26:49.100Z,27.30
2022-10-05T12:32:00.569Z,27.40
2022-10-05T12:37:10.909Z,27.50
2022-10-05T12:42:26.062Z,27.50
2022-10-05T12:47:41.036Z,27.50
2022-10-05T12:53:01.603Z,27.50
2022-10-05T12:58:19.790Z,27.50
2022-10-05T13:03:27.670Z,27.40
2022-10-05T13:08:35.309Z,27.40
2022-10-05T13:13:50.568Z,27.40
2022-10-05T13:19:19.574Z,27.40
2022-10-05T13:24:27.147Z,27.30
2022-10-05T13:29:36.306Z,27.30
2022-10-05T13:34:48.613Z,27.30
2022-10-05T13:40:02.097Z,27.20
2022-10-05T13:45:15.081Z,27.20
2022-10-05T13:50:28.424Z,27.20
2022-10-05T13:55:42.209Z,27.20
2022-10-05T14:00:51.045Z,27.20
2022-10-05T14:05:57.865Z,27.20
2022-10-05T14:11:03.071Z,27.10
2022-10-05T14:16:21.592Z,27.10
2022-10-05T14:21:27.609Z,27.10
2022-10-05T14:26:36.405Z,27.00
2022-10-05T14:31:50.831Z,27.00
2022-10-05T14:37:01.504Z,27.00
2022-10-05T14:42:15.845Z,26.90
2022-10-05T14:47:23.771Z,26.90
2022-10-05T14:52:34.768Z,26.90
2022-10-05T14:57:42.995Z,26.80
2022-10-05T15:03:21.709Z,26.80
2022-10-05T15:08:46.330Z,26.70
2022-10-05T15:13:49.993Z,26.60
2022-10-05T15:19:01.062Z,26.60
2022-10-05T15:24:10.517Z,26.60
2022-10-05T15:29:27.761Z,26.50
2022-10-05T15:34:37.605Z,26.50
2022-10-05T15:39:50.254Z,26.40
2022-10-05T15:45:06.270Z,26.30
2022-10-05T15:50:21.781Z,26.30
2022-10-05T15:55:48.755Z,26.20
2022-10-05T16:00:58.874Z,26.20
2022-10-05T16:06:26.139Z,26.30
2022-10-05T16:11:51.811Z,26.50
2022-10-05T16:17:08.210Z,26.60
2022-10-05T16:22:22.463Z,26.90
2022-10-05T16:27:38.962Z,27.10
2022-10-05T16:32:51.076Z,27.20
2022-10-05T16:38:05.847Z,27.30
2022-10-05T16:43:23.083Z,27.40
2022-10-05T16:48:29.553Z,27.30
2022-10-05T16:53:38.444Z,27.20
2022-10-05T16:58:57.136Z,27.00
2022-10-05T17:04:15.054Z,26.80
2022-10-05T17:09:43.274Z,26.60
2022-10-05T17:15:03.454Z,26.50
2022-10-05T17:20:31.237Z,26.30
2022-10-05T17:25:44.601Z,26.10
2022-10-05T17:31:06.576Z,25.90
2022-10-05T17:36:20.039Z,25.80
2022-10-05T17:41:25.513Z,25.80
2022-10-05T17:46:42.475Z,25.60
2022-10-05T17:52:18.367Z,25.90
2022-10-05T17:57:25.221Z,26.20
2022-10-05T18:02:44.255Z,26.30
2022-10-05T18:07:50.165Z,26.30
2022-10-05T18:13:19.810Z,26.20
2022-10-05T18:18:58.816Z,26.10
2022-10-05T18:24:17.783Z,25.90
2022-10-05T18:29:48.414Z,25.80
2022-10-05T18:35:02.125Z,25.60
2022-10-05T18:40:26.078Z,25.40
2022-10-05T18:45:36.810Z,25.20
2022-10-05T18:50:46.811Z,25.10
2022-10-05T18:55:57.769Z,24.90
2022-10-05T19:01:30.511Z,24.80
2022-10-05T19:06:39.984Z,24.60
2022-10-05T19:11:53.748Z,24.60
2022-10-05T19:17:12.364Z,24.40
2022-10-05T19:22:25.224Z,24.30
2022-10-05T19:27:40.672Z,24.20
2022-10-05T19:33:21.122Z,24.10
2022-10-05T19:38:33.844Z,24.10
2022-10-05T19:44:09.178Z,24.00
2022-10-05T19:49:12.894Z,23.90
2022-10-05T19:54:25.970Z,23.80
2022-10-05T19:59:32.067Z,23.70
2022-10-05T20:04:40.886Z,23.70
2022-10-05T20:09:56.934Z,23.60
2022-10-05T20:15:26.868Z,23.50
2022-10-05T20:20:38.389Z,23.40
2022-10-05T20:25:41.644Z,23.40
2022-10-05T20:30:46.603Z,23.30
2022-10-05T20:35:49.881Z,23.30
2022-10-05T20:40:53.127Z,23.20
2022-10-05T20:45:57.851Z,23.20
2022-10-05T20:51:02.276Z,23.10
2022-10-05T20:56:06.132Z,23.10
2022-10-05T21:01:19.088Z,23.00
2022-10-05T21:06:22.973Z,23.00
2022-10-05T21:11:26.838Z,22.90
2022-10-05T21:16:31.675Z,22.90
2022-10-05T21:21:35.240Z,22.80
2022-10-05T21:26:38.811Z,22.80
2022-10-05T21:31:43.876Z,22.80
2022-10-05T21:36:48.519Z,22.70
2022-10-05T21:41:52.329Z,22.70
2022-10-05T21:46:57.596Z,22.70
2022-10-05T21:52:02.178Z,22.60
2022-10-05T21:57:05.655Z,22.60
2022-10-05T22:02:10.264Z,22.60
2022-10-05T22:07:19.193Z,22.50
2022-10-05T22:12:24.452Z,22.50
2022-10-05T22:17:31.834Z,22.50
2022-10-05T22:22:35.097Z,22.40
2022-10-05T22:27:38.408Z,22.40
2022-10-05T22:32:43.268Z,22.40
2022-10-05T22:37:47.062Z,22.30
2022-10-05T22:42:50.405Z,22.20
2022-10-05T22:47:55.076Z,22.20
2022-10-05T22:52:58.719Z,22.20
2022-10-05T22:58:02.817Z,22.20
2022-10-05T23:03:07.577Z,22.10
2022-10-05T23:08:10.814Z,22.10
2022-10-05T23:13:14.005Z,22.00
2022-10-05T23:18:18.600Z,22.00
2022-10-05T23:23:22.165Z,22.00
2022-10-05T23:28:26.343Z,21.90
2022-10-05T23:33:31.946Z,21.90
2022-10-05T23:38:36.750Z,21.90
2022-10-05T23:43:40.666Z,21.80
2022-10-05T23:48:45.613Z,21.80
2022-10-05T23:53:49.006Z,21.70
2022-10-05T23:58:52.221Z,21.70
